Portada
METAR-TAF:

METAR-TAF

Aeropuertos :

Knoxville Municipal Airport

Knoxville, Iowa, Estados Unidos

latitud: 41-18N, longitud: 093-07W, altitud: 283 m

Observación

El informe se hizo hace 20 minutos, a las 07:55 UTC
Viento calma
Temperatura 16°C
Humedad 94%
Presión 1025 hPa
Visibilidad: 16.1 km
Cielo cubierto a una altura de 10000 ft

METAR: KOXV 310755Z AUTO 00000KT 10SM OVC100 16/15 A3026 RMK AO2

Hora: 03:15 (08:15 UTC)


TAF: falta

Observaciones y pronósticos meteorológicos de más de 4000 aeropuertos (mensajes METAR y TAF).

Los puntos amarillos y rojos representan las estaciones disponibles.

Ponga el ratón en el punto deseado para ver el nombre de la estación.

Haga clic para ver las observaciones y los pronósticos meteorológicos.

Para cambiar el mapa : haga clic en los botones verdes con una cruz de color negro para hacer un zoom, en el botón verde con un guión para alejar o en las flechas verdes para mapas adyacentes.


METAR-TAF: